createdAt,value
2023-05-09T00:04:03.640Z,11.57
2023-05-09T00:08:09.934Z,10.48
2023-05-09T00:12:14.601Z,14.18
2023-05-09T00:16:21.046Z,11.30
2023-05-09T00:20:28.476Z,13.05
2023-05-09T00:24:31.785Z,12.70
2023-05-09T00:28:34.995Z,12.10
2023-05-09T00:32:38.100Z,14.90
2023-05-09T00:36:45.172Z,13.23
2023-05-09T00:40:51.462Z,14.63
2023-05-09T00:44:54.430Z,17.67
2023-05-09T00:48:58.923Z,17.60
2023-05-09T00:53:04.523Z,17.83
2023-05-09T00:57:07.539Z,17.73
2023-05-09T01:01:18.198Z,23.13
2023-05-09T01:05:24.379Z,18.70
2023-05-09T01:09:39.289Z,15.23
2023-05-09T01:13:52.062Z,17.23
2023-05-09T01:17:59.649Z,18.10
2023-05-09T01:22:07.257Z,16.48
2023-05-09T01:26:21.009Z,17.50
2023-05-09T01:30:28.650Z,18.17
2023-05-09T01:34:38.901Z,16.35
2023-05-09T01:38:45.353Z,16.35
2023-05-09T01:43:08.376Z,20.73
2023-05-09T01:47:19.634Z,18.73
2023-05-09T01:51:24.652Z,16.70
2023-05-09T01:55:36.137Z,18.65
2023-05-09T01:59:44.828Z,17.65
2023-05-09T02:03:52.713Z,17.30
2023-05-09T02:07:58.852Z,18.48
2023-05-09T02:12:04.634Z,17.83
2023-05-09T02:16:09.354Z,22.52
2023-05-09T02:20:14.260Z,20.23
2023-05-09T02:24:31.013Z,18.80
2023-05-09T02:28:37.554Z,22.65
2023-05-09T02:32:41.752Z,21.25
2023-05-09T02:36:48.348Z,20.63
2023-05-09T02:40:54.381Z,24.58
2023-05-09T02:44:57.680Z,22.20
2023-05-09T02:49:00.826Z,21.80
2023-05-09T02:53:06.779Z,24.27
2023-05-09T02:57:11.193Z,23.85
2023-05-09T03:01:14.219Z,22.42
2023-05-09T03:05:19.430Z,25.48
2023-05-09T03:09:26.675Z,24.23
2023-05-09T03:13:29.686Z,22.98
2023-05-09T03:17:34.621Z,24.52
2023-05-09T03:21:37.773Z,21.10
2023-05-09T03:25:46.371Z,26.40
2023-05-09T03:29:50.940Z,26.02
2023-05-09T03:33:55.667Z,21.08
2023-05-09T03:37:58.956Z,23.13
2023-05-09T03:42:03.555Z,26.73
2023-05-09T03:46:06.650Z,26.25
2023-05-09T03:50:10.933Z,26.75
2023-05-09T03:54:15.948Z,26.17
2023-05-09T03:58:20.694Z,27.48
2023-05-09T04:02:25.598Z,25.92
2023-05-09T04:06:30.160Z,26.85
2023-05-09T04:10:40.126Z,25.00
2023-05-09T04:14:50.083Z,27.52
2023-05-09T04:19:00.319Z,27.67
2023-05-09T04:23:03.432Z,27.25
2023-05-09T04:27:11.952Z,26.00
2023-05-09T04:31:19.463Z,31.30
2023-05-09T04:35:24.415Z,24.77
2023-05-09T04:39:27.431Z,28.83
2023-05-09T04:43:31.325Z,27.73
2023-05-09T04:47:35.748Z,27.88
2023-05-09T04:51:41.289Z,34.83
2023-05-09T04:55:44.615Z,22.17
2023-05-09T04:59:53.005Z,24.88
2023-05-09T05:03:57.598Z,21.25
2023-05-09T05:08:02.418Z,27.50
2023-05-09T05:12:09.312Z,22.85
2023-05-09T05:16:12.885Z,21.55
2023-05-09T05:20:17.374Z,24.88
2023-05-09T05:24:20.407Z,21.40
2023-05-09T05:28:23.604Z,23.15
2023-05-09T05:32:26.727Z,19.17
2023-05-09T05:36:32.021Z,20.00
2023-05-09T05:40:35.320Z,20.15
2023-05-09T05:44:43.921Z,17.60
2023-05-09T05:48:49.971Z,17.27
2023-05-09T05:52:54.392Z,16.33
2023-05-09T05:56:57.424Z,20.05
2023-05-09T06:01:00.914Z,18.92
2023-05-09T06:05:04.860Z,18.17
2023-05-09T06:09:09.698Z,17.80
2023-05-09T06:13:12.720Z,18.95
2023-05-09T06:17:15.854Z,17.17
2023-05-09T06:21:21.768Z,14.98
2023-05-09T06:25:28.191Z,15.45
2023-05-09T06:29:32.456Z,12.35
2023-05-09T06:33:35.475Z,12.13
2023-05-09T06:37:47.727Z,10.45
2023-05-09T06:41:53.220Z,11.18
2023-05-09T06:45:56.553Z,10.52
2023-05-09T06:50:05.490Z,11.40
2023-05-09T06:54:08.506Z,9.80
2023-05-09T06:58:13.721Z,7.80
2023-05-09T07:02:16.839Z,8.45
2023-05-09T07:06:19.887Z,7.47
2023-05-09T07:10:23.312Z,8.27
2023-05-09T07:14:27.820Z,9.30
2023-05-09T07:18:31.043Z,11.93
2023-05-09T07:22:36.406Z,10.07
2023-05-09T07:26:40.277Z,6.55
2023-05-09T07:30:44.850Z,7.57
2023-05-09T07:34:50.887Z,7.28
2023-05-09T07:38:54.724Z,10.32
2023-05-09T07:42:58.755Z,7.03
2023-05-09T07:47:09.196Z,6.97
2023-05-09T07:51:12.479Z,5.18
2023-05-09T07:55:16.070Z,5.18
2023-05-09T07:59:19.428Z,9.10
2023-05-09T08:03:23.978Z,5.28
2023-05-09T08:07:27.016Z,4.82
2023-05-09T08:11:30.730Z,5.72
2023-05-09T08:15:33.773Z,4.20
2023-05-09T08:19:38.182Z,4.40
2023-05-09T08:23:41.767Z,4.25
2023-05-09T08:27:47.479Z,4.65
2023-05-09T08:32:01.336Z,6.57
2023-05-09T08:36:11.898Z,4.07
2023-05-09T08:40:16.965Z,8.75
2023-05-09T08:44:26.395Z,6.47
2023-05-09T08:48:29.903Z,4.85
2023-05-09T08:52:38.941Z,7.05
2023-05-09T08:56:43.968Z,8.00
2023-05-09T09:00:49.072Z,5.68
2023-05-09T09:04:52.133Z,8.38
2023-05-09T09:08:58.171Z,4.63
2023-05-09T09:13:07.515Z,9.82
2023-05-09T09:17:17.013Z,6.25
2023-05-09T09:21:21.405Z,13.43
2023-05-09T09:25:25.853Z,4.28
2023-05-09T09:29:31.811Z,4.80
2023-05-09T09:33:37.687Z,8.52
2023-05-09T09:37:44.412Z,5.30
2023-05-09T09:41:51.713Z,5.10
2023-05-09T09:45:58.238Z,4.65
2023-05-09T09:50:12.102Z,4.40
2023-05-09T09:54:18.341Z,4.68
2023-05-09T09:58:25.080Z,5.38
2023-05-09T10:02:28.106Z,4.20
2023-05-09T10:06:31.341Z,5.47
2023-05-09T10:10:40.271Z,6.15
2023-05-09T10:14:45.346Z,7.32
2023-05-09T10:18:53.800Z,4.80
2023-05-09T10:22:59.096Z,11.43
2023-05-09T10:27:07.558Z,7.20
2023-05-09T10:31:19.011Z,7.90
2023-05-09T10:35:30.285Z,5.72
2023-05-09T10:39:34.172Z,5.43
2023-05-09T10:43:38.105Z,5.22
2023-05-09T10:47:51.684Z,3.50
2023-05-09T10:51:58.272Z,7.53
2023-05-09T10:56:05.087Z,8.75
2023-05-09T11:00:11.736Z,5.30
2023-05-09T11:04:21.508Z,5.90
2023-05-09T11:08:27.178Z,4.72
2023-05-09T11:12:30.138Z,4.38
2023-05-09T11:16:33.217Z,7.70
2023-05-09T11:20:43.592Z,6.93
2023-05-09T11:24:54.153Z,5.70
2023-05-09T11:29:00.813Z,4.63
2023-05-09T11:33:06.917Z,17.65
2023-05-09T11:37:14.065Z,9.07
2023-05-09T11:41:20.041Z,9.35
2023-05-09T11:45:36.629Z,7.10
2023-05-09T11:49:40.100Z,7.45
2023-05-09T11:53:48.134Z,5.10
2023-05-09T11:57:52.568Z,10.80
2023-05-09T12:01:56.696Z,5.68
2023-05-09T12:06:01.712Z,4.85
2023-05-09T12:10:09.439Z,4.63
2023-05-09T12:14:14.072Z,4.35
2023-05-09T12:18:18.580Z,4.68
2023-05-09T12:22:23.166Z,9.70
2023-05-09T12:26:30.323Z,4.65
2023-05-09T12:30:33.993Z,6.85
2023-05-09T12:34:37.406Z,7.55
2023-05-09T12:38:40.994Z,10.63
2023-05-09T12:42:46.986Z,6.20
2023-05-09T12:47:01.001Z,7.60
2023-05-09T12:51:04.561Z,5.78
2023-05-09T12:55:12.704Z,5.68
2023-05-09T12:59:22.002Z,6.00
2023-05-09T13:03:27.427Z,6.13
2023-05-09T13:07:30.551Z,6.13
2023-05-09T13:11:33.698Z,7.30
2023-05-09T13:15:39.178Z,7.88
2023-05-09T13:19:42.197Z,8.35
2023-05-09T13:23:52.380Z,6.03
2023-05-09T13:27:57.830Z,5.88
2023-05-09T13:32:04.405Z,7.60
2023-05-09T13:36:07.835Z,8.80
2023-05-09T13:40:14.477Z,10.88
2023-05-09T13:44:17.667Z,10.63
2023-05-09T13:48:24.022Z,5.50
2023-05-09T13:52:29.864Z,13.60
2023-05-09T13:56:32.920Z,5.68
2023-05-09T14:00:36.893Z,5.22
2023-05-09T14:04:46.462Z,4.70
2023-05-09T14:08:49.709Z,5.30
2023-05-09T14:12:53.568Z,6.43
2023-05-09T14:16:58.878Z,5.70
2023-05-09T14:21:09.640Z,10.32
2023-05-09T14:25:14.164Z,5.10
2023-05-09T14:29:18.070Z,8.43
2023-05-09T14:33:21.310Z,4.18
2023-05-09T14:37:25.670Z,5.28
2023-05-09T14:41:28.695Z,5.30
2023-05-09T14:45:33.968Z,5.78
2023-05-09T14:49:41.645Z,4.75
2023-05-09T14:53:48.814Z,6.10
2023-05-09T14:57:53.769Z,3.78
2023-05-09T15:01:57.072Z,3.75
2023-05-09T15:06:01.831Z,4.18
2023-05-09T15:10:07.245Z,10.63
2023-05-09T15:14:12.358Z,3.38
2023-05-09T15:18:18.517Z,3.83
2023-05-09T15:22:21.569Z,7.95
2023-05-09T15:26:27.518Z,2.80
2023-05-09T15:30:33.426Z,3.15
2023-05-09T15:34:36.467Z,2.90
2023-05-09T15:38:39.517Z,5.57
2023-05-09T15:42:44.027Z,3.15
2023-05-09T15:46:48.314Z,3.80
2023-05-09T15:50:55.985Z,4.20
2023-05-09T15:55:01.443Z,3.78
2023-05-09T15:59:06.438Z,5.22
2023-05-09T16:03:09.647Z,5.80
2023-05-09T16:07:13.853Z,4.63
2023-05-09T16:11:16.841Z,7.65
2023-05-09T16:15:24.191Z,3.25
2023-05-09T16:19:27.669Z,6.68
2023-05-09T16:23:34.121Z,3.72
2023-05-09T16:27:38.368Z,3.00
2023-05-09T16:31:44.996Z,3.28
2023-05-09T16:35:49.728Z,4.13
2023-05-09T16:39:54.607Z,14.43
2023-05-09T16:44:00.504Z,7.80
2023-05-09T16:48:08.104Z,3.40
2023-05-09T16:52:11.180Z,7.35
2023-05-09T16:56:17.186Z,3.25
2023-05-09T17:00:21.106Z,3.95
2023-05-09T17:04:29.375Z,4.13
2023-05-09T17:08:32.493Z,6.72
2023-05-09T17:12:35.875Z,3.28
2023-05-09T17:16:40.573Z,3.28
2023-05-09T17:20:44.975Z,6.57
2023-05-09T17:24:50.410Z,3.38
2023-05-09T17:28:53.414Z,5.22
2023-05-09T17:32:58.297Z,3.95
2023-05-09T17:37:05.719Z,4.65
2023-05-09T17:41:08.796Z,7.68
2023-05-09T17:45:13.129Z,10.70
2023-05-09T17:49:17.741Z,9.32
2023-05-09T17:53:25.879Z,40.30
2023-05-09T17:57:30.404Z,29.40
2023-05-09T18:01:35.285Z,29.55
2023-05-09T18:05:40.284Z,19.90
2023-05-09T18:09:47.696Z,30.63
2023-05-09T18:13:50.848Z,47.55
2023-05-09T18:17:57.740Z,9.93
2023-05-09T18:22:01.611Z,13.05
2023-05-09T18:26:06.222Z,5.97
2023-05-09T18:30:12.473Z,6.63
2023-05-09T18:34:15.561Z,7.20
2023-05-09T18:38:20.762Z,5.53
2023-05-09T18:42:25.255Z,6.05
2023-05-09T18:46:30.012Z,6.00
2023-05-09T18:50:36.224Z,3.97
2023-05-09T18:54:41.519Z,5.32
2023-05-09T18:58:45.916Z,6.30
2023-05-09T19:02:49.096Z,7.65
2023-05-09T19:06:54.251Z,8.13
2023-05-09T19:10:57.318Z,6.38
2023-05-09T19:15:04.338Z,6.03
2023-05-09T19:19:07.715Z,5.65
2023-05-09T19:23:14.615Z,3.58
2023-05-09T19:27:19.730Z,8.70
2023-05-09T19:31:29.078Z,5.60
2023-05-09T19:35:32.428Z,4.85
2023-05-09T19:39:35.479Z,5.78
2023-05-09T19:43:42.558Z,4.85
2023-05-09T19:48:21.310Z,5.93
2023-05-09T19:52:25.802Z,5.55
2023-05-09T19:56:28.822Z,5.97
2023-05-09T20:00:32.309Z,10.55
2023-05-09T20:04:42.612Z,6.43
2023-05-09T20:08:52.180Z,7.43
2023-05-09T20:12:59.197Z,5.82
2023-05-09T20:17:04.280Z,8.52
2023-05-09T20:21:12.934Z,4.30
2023-05-09T20:25:16.098Z,4.15
2023-05-09T20:29:19.115Z,5.43
2023-05-09T20:33:22.237Z,6.00
2023-05-09T20:37:26.717Z,8.90
2023-05-09T20:41:29.958Z,5.53
2023-05-09T20:45:33.501Z,5.63
2023-05-09T20:49:39.570Z,5.10
2023-05-09T20:53:43.972Z,8.85
2023-05-09T20:57:50.798Z,7.55
2023-05-09T21:01:56.552Z,6.65
2023-05-09T21:06:14.838Z,5.63
2023-05-09T21:10:19.682Z,10.85
2023-05-09T21:14:26.095Z,4.80
2023-05-09T21:18:31.067Z,6.15
2023-05-09T21:22:35.310Z,7.68
2023-05-09T21:26:45.258Z,5.47
2023-05-09T21:30:54.698Z,4.95
2023-05-09T21:35:02.436Z,6.55
2023-05-09T21:39:09.129Z,4.00
2023-05-09T21:43:18.309Z,6.47
2023-05-09T21:47:21.775Z,9.57
2023-05-09T21:51:27.386Z,5.80
2023-05-09T21:55:30.720Z,6.15
2023-05-09T21:59:37.966Z,4.50
2023-05-09T22:03:41.174Z,7.53
2023-05-09T22:07:44.420Z,4.85
2023-05-09T22:11:47.524Z,9.32
2023-05-09T22:15:55.094Z,6.20
2023-05-09T22:20:00.945Z,5.97
2023-05-09T22:24:07.712Z,6.30
2023-05-09T22:28:10.753Z,5.38
2023-05-09T22:32:16.815Z,3.50
2023-05-09T22:36:24.312Z,6.50
2023-05-09T22:40:30.184Z,3.65
2023-05-09T22:44:36.350Z,4.45
2023-05-09T22:48:40.850Z,4.50
2023-05-09T22:52:43.892Z,6.15
2023-05-09T22:56:47.448Z,4.93
2023-05-09T23:00:50.779Z,4.20
2023-05-09T23:04:58.059Z,6.18
2023-05-09T23:09:01.175Z,3.50
2023-05-09T23:13:06.303Z,4.68
2023-05-09T23:17:11.179Z,7.20
2023-05-09T23:21:17.682Z,5.00
2023-05-09T23:25:20.836Z,3.88
2023-05-09T23:29:23.842Z,3.60
2023-05-09T23:33:30.931Z,5.68
2023-05-09T23:37:35.370Z,3.92
2023-05-09T23:41:41.144Z,4.15
2023-05-09T23:45:45.408Z,3.85
2023-05-09T23:49:48.486Z,9.50
2023-05-09T23:53:55.087Z,4.00
2023-05-09T23:58:04.326Z,5.00
